Time;durP1;ratioP1;P1;durP2;ratioP2;P2;SDS_P1;SDS_P2;PMS_P1;PMS_P2;Temp;Humidity;BMP_temperature;BMP_pressure;BME280_temperature;BME280_humidity;BME280_pressure;Samples;Min_cycle;Max_cycle;Signal;HPM_P1;HPM_P2
2023/12/25 00:00:44;;;;;;;5.73;0.70;;;11.40;99.90;;;;;;5040219;28;20486;-72
2023/12/25 00:03:12;;;;;;;9.63;1.10;;;11.50;99.90;;;;;;5043998;28;20902;-73
2023/12/25 00:05:40;;;;;;;6.37;0.73;;;11.40;99.90;;;;;;5043158;28;20854;-72
2023/12/25 00:08:08;;;;;;;7.37;1.53;;;11.40;99.90;;;;;;5042425;28;20625;-73
2023/12/25 00:10:36;;;;;;;6.00;0.70;;;11.50;99.90;;;;;;5043388;28;20548;-72
2023/12/25 00:13:04;;;;;;;5.90;0.80;;;11.50;99.90;;;;;;5043072;28;20456;-75
2023/12/25 00:15:33;;;;;;;9.27;0.90;;;11.50;99.90;;;;;;5043532;28;20518;-75
2023/12/25 00:18:01;;;;;;;5.90;0.70;;;11.50;99.90;;;;;;5043332;28;20492;-72
2023/12/25 00:20:29;;;;;;;7.67;0.80;;;11.50;99.90;;;;;;5042767;28;20482;-70
2023/12/25 00:22:57;;;;;;;6.33;0.80;;;11.50;99.90;;;;;;5046862;28;20938;-69
2023/12/25 00:25:25;;;;;;;6.47;1.23;;;11.50;99.90;;;;;;5046206;28;20453;-70
2023/12/25 00:27:54;;;;;;;9.03;1.27;;;11.50;99.90;;;;;;5046120;28;20901;-72
2023/12/25 00:30:22;;;;;;;6.93;0.80;;;11.50;99.90;;;;;;5047014;28;21413;-70
2023/12/25 00:32:51;;;;;;;6.10;0.83;;;11.50;99.90;;;;;;5047060;28;20494;-71
2023/12/25 00:35:19;;;;;;;6.90;1.00;;;11.40;99.90;;;;;;5046257;28;21089;-70
2023/12/25 00:37:47;;;;;;;7.93;0.90;;;11.40;99.90;;;;;;5046331;28;20566;-75
2023/12/25 00:40:15;;;;;;;6.70;0.90;;;11.40;99.90;;;;;;5038617;28;20563;-72
2023/12/25 00:42:43;;;;;;;6.00;0.70;;;11.30;99.90;;;;;;5046307;28;20498;-73
2023/12/25 00:45:11;;;;;;;5.80;0.67;;;11.30;99.90;;;;;;5043619;28;20502;-72
2023/12/25 00:47:39;;;;;;;7.13;0.90;;;11.30;99.90;;;;;;5046198;28;20464;-69
2023/12/25 00:50:10;;;;;;;6.20;0.70;;;11.30;99.90;;;;;;5041327;28;20457;-71
2023/12/25 00:52:37;;;;;;;7.17;0.80;;;11.30;99.90;;;;;;5036153;28;20440;-70
2023/12/25 00:55:06;;;;;;;6.10;0.80;;;11.20;99.90;;;;;;5045451;28;20523;-72
2023/12/25 00:57:34;;;;;;;7.90;1.00;;;11.20;99.90;;;;;;5046893;28;20529;-70
2023/12/25 01:00:02;;;;;;;6.30;0.90;;;11.20;99.90;;;;;;5047389;28;20463;-74
2023/12/25 01:02:30;;;;;;;6.37;1.00;;;11.20;99.90;;;;;;5045432;28;20450;-69
2023/12/25 01:04:58;;;;;;;6.50;0.80;;;11.20;99.90;;;;;;5046794;28;20444;-75
2023/12/25 01:07:27;;;;;;;6.20;0.80;;;11.20;99.90;;;;;;5039023;28;20468;-70
2023/12/25 01:09:55;;;;;;;6.60;0.90;;;11.10;99.90;;;;;;5047462;28;20445;-71
2023/12/25 01:12:23;;;;;;;7.30;1.10;;;11.10;99.90;;;;;;5046623;28;20436;-74
2023/12/25 01:14:51;;;;;;;6.70;0.93;;;11.10;99.90;;;;;;5045512;28;20526;-71
2023/12/25 01:17:19;;;;;;;6.67;0.77;;;11.10;99.90;;;;;;5046158;28;20460;-70
2023/12/25 01:19:47;;;;;;;6.47;0.80;;;11.10;99.90;;;;;;5046881;28;20534;-70
2023/12/25 01:22:15;;;;;;;6.40;0.70;;;11.00;99.90;;;;;;5047617;28;20924;-71
2023/12/25 01:24:44;;;;;;;6.57;0.67;;;11.00;99.90;;;;;;5046448;28;21134;-70
2023/12/25 01:27:12;;;;;;;5.93;0.80;;;11.00;99.90;;;;;;5047357;28;20464;-74
2023/12/25 01:29:40;;;;;;;6.50;0.80;;;11.00;99.90;;;;;;5046755;28;20475;-71
2023/12/25 01:32:08;;;;;;;6.40;0.93;;;11.00;99.90;;;;;;5047858;28;20447;-70
2023/12/25 01:34:36;;;;;;;7.00;0.80;;;10.90;99.90;;;;;;5047522;28;20466;-70
2023/12/25 01:37:05;;;;;;;6.13;0.97;;;10.90;99.90;;;;;;5047754;28;20564;-70
2023/12/25 01:39:33;;;;;;;5.90;0.80;;;10.80;99.90;;;;;;5047635;28;20491;-70
2023/12/25 01:42:02;;;;;;;8.07;0.80;;;10.80;99.90;;;;;;5046618;28;20480;-71
2023/12/25 01:44:30;;;;;;;6.07;0.53;;;10.80;99.90;;;;;;5045928;28;20439;-69
2023/12/25 01:46:58;;;;;;;5.57;0.53;;;10.80;99.90;;;;;;5047047;28;20487;-70
2023/12/25 01:49:26;;;;;;;5.87;0.90;;;10.80;99.90;;;;;;5047572;28;20521;-70
2023/12/25 01:51:55;;;;;;;6.30;1.13;;;10.70;99.90;;;;;;5047393;28;20859;-71
2023/12/25 01:54:23;;;;;;;6.20;0.70;;;10.70;99.90;;;;;;5046999;28;20861;-71
2023/12/25 01:56:51;;;;;;;6.83;1.00;;;10.70;99.90;;;;;;5047303;28;20474;-70
2023/12/25 01:59:21;;;;;;;7.40;0.80;;;10.70;99.90;;;;;;5046986;28;20991;-69
2023/12/25 02:01:49;;;;;;;6.10;0.60;;;10.60;99.90;;;;;;5047045;28;20560;-71
2023/12/25 02:04:17;;;;;;;6.00;0.83;;;10.60;99.90;;;;;;5046757;28;20450;-70
2023/12/25 02:06:45;;;;;;;8.60;1.00;;;10.60;99.90;;;;;;5046556;28;20950;-70
2023/12/25 02:09:14;;;;;;;6.30;0.80;;;10.50;99.90;;;;;;5047372;28;20455;-70
2023/12/25 02:11:41;;;;;;;6.07;0.80;;;10.60;99.90;;;;;;5047111;28;20450;-70
2023/12/25 02:14:11;;;;;;;10.00;1.10;;;10.50;99.90;;;;;;5046519;28;20466;-70
2023/12/25 02:16:45;;;;;;;9.30;1.27;;;10.40;99.90;;;;;;5046556;28;20937;-70
2023/12/25 02:19:25;;;;;;;6.57;0.70;;;10.40;99.90;;;;;;5046369;28;20569;-70
2023/12/25 02:21:57;;;;;;;8.10;1.60;;;10.40;99.90;;;;;;5046529;28;20486;-71
2023/12/25 02:24:30;;;;;;;8.83;2.87;;;10.40;99.90;;;;;;5046458;28;20455;-69
2023/12/25 02:26:59;;;;;;;9.93;3.53;;;10.40;99.90;;;;;;5046139;28;20454;-70
2023/12/25 02:29:27;;;;;;;9.00;2.80;;;10.40;99.90;;;;;;5046216;28;20541;-70
2023/12/25 02:31:58;;;;;;;9.00;2.23;;;10.40;99.90;;;;;;5046050;28;20977;-70
2023/12/25 02:34:26;;;;;;;7.07;1.43;;;10.40;99.90;;;;;;5045689;28;20949;-71
2023/12/25 02:36:54;;;;;;;7.50;1.17;;;10.40;99.90;;;;;;5045586;28;20504;-70
2023/12/25 02:39:27;;;;;;;7.00;1.73;;;10.40;99.90;;;;;;5045984;28;20479;-70
2023/12/25 02:41:55;;;;;;;6.20;0.90;;;10.50;99.90;;;;;;5045822;28;20948;-70
2023/12/25 02:44:24;;;;;;;6.83;0.90;;;10.50;99.90;;;;;;5046086;28;20466;-72
2023/12/25 02:46:52;;;;;;;6.60;0.93;;;10.50;99.90;;;;;;5046489;28;20452;-71
2023/12/25 02:49:20;;;;;;;8.23;1.20;;;10.50;99.90;;;;;;5046993;28;20550;-69
2023/12/25 02:51:48;;;;;;;6.10;0.80;;;10.50;99.90;;;;;;5046797;28;20452;-71
2023/12/25 02:54:16;;;;;;;6.50;0.97;;;10.50;99.90;;;;;;5046513;28;20519;-69
2023/12/25 02:56:44;;;;;;;6.00;0.77;;;10.40;99.90;;;;;;5046725;28;20517;-70
2023/12/25 02:59:11;;;;;;;5.87;0.80;;;10.40;99.90;;;;;;5046762;28;20451;-69
2023/12/25 03:01:40;;;;;;;6.27;0.80;;;10.40;99.90;;;;;;5046620;28;20492;-71
2023/12/25 03:04:08;;;;;;;5.70;0.60;;;10.50;99.90;;;;;;5046614;28;21036;-71
2023/12/25 03:06:36;;;;;;;6.77;0.90;;;10.60;99.90;;;;;;5046402;28;20504;-69
2023/12/25 03:09:04;;;;;;;6.10;0.83;;;10.60;99.90;;;;;;5046425;28;20558;-70
2023/12/25 03:11:32;;;;;;;5.90;0.60;;;10.60;99.90;;;;;;5046509;28;20454;-69
2023/12/25 03:14:01;;;;;;;8.23;0.80;;;10.50;99.90;;;;;;5046480;28;20460;-69
2023/12/25 03:16:29;;;;;;;6.83;0.90;;;10.50;99.90;;;;;;5046381;28;20509;-71
2023/12/25 03:18:58;;;;;;;5.70;0.50;;;10.40;99.90;;;;;;5046323;28;21094;-70
2023/12/25 03:21:26;;;;;;;6.33;1.07;;;10.30;99.90;;;;;;5046570;28;20451;-70
2023/12/25 03:23:54;;;;;;;8.40;0.70;;;10.40;99.90;;;;;;5046367;28;20496;-70
2023/12/25 03:26:22;;;;;;;6.20;0.70;;;10.30;99.90;;;;;;5045946;28;20443;-71
2023/12/25 03:28:50;;;;;;;5.93;0.73;;;10.20;99.90;;;;;;5046404;28;20997;-70
2023/12/25 03:31:18;;;;;;;6.60;0.77;;;10.10;99.90;;;;;;5046243;28;20450;-69
2023/12/25 03:33:46;;;;;;;6.00;0.80;;;10.10;99.90;;;;;;5046448;28;20478;-71
2023/12/25 03:36:15;;;;;;;6.27;0.77;;;10.10;99.90;;;;;;5045899;28;20539;-71
2023/12/25 03:38:46;;;;;;;6.30;0.70;;;10.10;99.90;;;;;;5046469;28;20474;-70
2023/12/25 03:41:14;;;;;;;6.00;0.70;;;10.20;99.90;;;;;;5046562;28;20439;-70
2023/12/25 03:43:44;;;;;;;6.63;0.80;;;10.20;99.90;;;;;;5046334;28;20533;-70
2023/12/25 03:46:12;;;;;;;8.00;0.70;;;10.30;99.90;;;;;;5045785;28;20512;-70
2023/12/25 03:48:40;;;;;;;6.00;0.70;;;10.30;99.90;;;;;;5046418;28;20857;-70
2023/12/25 03:51:08;;;;;;;6.07;0.67;;;10.20;99.90;;;;;;5046085;28;20514;-70
2023/12/25 03:53:38;;;;;;;7.00;1.00;;;10.10;99.90;;;;;;5046229;28;20471;-71
2023/12/25 03:56:08;;;;;;;6.30;1.03;;;10.10;99.90;;;;;;5046841;28;20455;-70
2023/12/25 03:58:36;;;;;;;5.60;0.70;;;10.20;99.90;;;;;;5050043;28;20471;-70
2023/12/25 04:01:04;;;;;;;6.33;0.80;;;10.20;99.90;;;;;;5049920;28;20948;-70
2023/12/25 04:03:32;;;;;;;6.20;0.70;;;10.20;99.90;;;;;;5049735;28;20492;-70
2023/12/25 04:06:00;;;;;;;5.80;0.93;;;10.20;99.90;;;;;;5049649;28;20459;-69
2023/12/25 04:08:28;;;;;;;6.10;0.70;;;10.20;99.90;;;;;;5049943;28;20485;-70
2023/12/25 04:10:57;;;;;;;6.20;0.80;;;10.20;99.90;;;;;;5050114;28;20451;-69
2023/12/25 04:13:25;;;;;;;6.60;0.70;;;10.20;99.90;;;;;;5049935;28;20448;-70
2023/12/25 04:15:53;;;;;;;5.90;0.70;;;10.10;99.90;;;;;;5049370;28;20553;-70
2023/12/25 04:18:21;;;;;;;5.60;0.60;;;10.20;99.90;;;;;;5050048;28;20463;-71
2023/12/25 04:20:49;;;;;;;6.60;0.80;;;10.10;99.90;;;;;;5049625;28;20966;-71
2023/12/25 04:23:17;;;;;;;6.23;0.77;;;10.10;99.90;;;;;;5049413;28;20493;-71
2023/12/25 04:25:45;;;;;;;6.53;0.93;;;10.10;99.90;;;;;;5049195;28;20444;-72
2023/12/25 04:28:14;;;;;;;8.87;1.30;;;10.10;99.90;;;;;;5049320;28;20718;-71
2023/12/25 04:30:42;;;;;;;5.90;0.80;;;10.10;99.90;;;;;;5049272;28;20450;-69
2023/12/25 04:33:10;;;;;;;5.80;0.70;;;10.10;99.90;;;;;;5049111;28;20494;-69
2023/12/25 04:35:38;;;;;;;7.33;0.60;;;10.10;99.90;;;;;;5048939;28;20532;-70
2023/12/25 04:38:06;;;;;;;5.93;0.60;;;10.10;99.90;;;;;;5049166;28;20840;-69
2023/12/25 04:40:34;;;;;;;6.00;0.70;;;10.10;99.90;;;;;;5049295;28;20459;-71
2023/12/25 04:43:02;;;;;;;6.20;0.90;;;10.10;99.90;;;;;;5049308;28;20529;-70
2023/12/25 04:45:31;;;;;;;6.00;0.60;;;10.10;99.90;;;;;;5049016;28;20494;-69
2023/12/25 04:47:59;;;;;;;5.80;0.80;;;10.20;99.90;;;;;;5048974;28;20466;-71
2023/12/25 04:50:27;;;;;;;5.90;0.57;;;10.20;99.90;;;;;;5049233;28;20460;-70
2023/12/25 04:52:55;;;;;;;5.80;0.73;;;10.20;99.90;;;;;;5048855;28;20447;-70
2023/12/25 04:55:23;;;;;;;5.80;0.67;;;10.30;99.90;;;;;;5048599;28;20456;-70
2023/12/25 04:57:51;;;;;;;5.90;0.50;;;10.50;99.90;;;;;;5049060;28;20467;-71
2023/12/25 05:00:20;;;;;;;6.00;0.93;;;10.50;99.90;;;;;;5048894;28;20953;-69
2023/12/25 05:02:52;;;;;;;5.90;0.70;;;10.50;99.90;;;;;;5048739;28;20486;-69
2023/12/25 05:05:22;;;;;;;6.40;0.80;;;10.50;99.90;;;;;;5048318;28;20763;-70
2023/12/25 05:07:50;;;;;;;5.80;0.60;;;10.40;99.90;;;;;;5048473;28;20470;-70
2023/12/25 05:10:18;;;;;;;6.37;0.60;;;10.50;99.90;;;;;;5048961;28;20557;-71
2023/12/25 05:12:46;;;;;;;5.93;0.63;;;10.40;99.90;;;;;;5048760;28;20921;-70
2023/12/25 05:15:14;;;;;;;6.00;0.80;;;10.40;99.90;;;;;;5048101;28;20443;-69
2023/12/25 05:17:42;;;;;;;6.20;0.80;;;10.30;99.90;;;;;;5048490;28;20470;-70
2023/12/25 05:20:12;;;;;;;6.37;0.77;;;10.30;99.90;;;;;;5048804;28;20443;-69
2023/12/25 05:22:40;;;;;;;5.70;0.60;;;10.20;99.90;;;;;;5048413;28;20471;-70
2023/12/25 05:25:08;;;;;;;5.90;0.63;;;10.20;99.90;;;;;;5048148;28;20821;-70
2023/12/25 05:27:36;;;;;;;6.47;0.80;;;10.30;99.90;;;;;;5048117;28;20477;-70
2023/12/25 05:30:05;;;;;;;6.23;0.77;;;10.20;99.90;;;;;;5048261;28;20540;-70
2023/12/25 05:32:35;;;;;;;8.53;0.80;;;10.30;99.90;;;;;;5048296;28;21242;-71
2023/12/25 05:35:04;;;;;;;6.40;0.80;;;10.30;99.90;;;;;;5047516;28;21039;-71
2023/12/25 05:37:34;;;;;;;5.80;0.60;;;10.30;99.90;;;;;;5050586;28;20548;-71
2023/12/25 05:40:04;;;;;;;5.83;0.67;;;10.30;99.90;;;;;;5047854;28;20526;-71
2023/12/25 05:42:33;;;;;;;6.30;0.70;;;10.30;99.90;;;;;;5046514;28;20455;-71
2023/12/25 05:45:01;;;;;;;6.17;0.80;;;10.20;99.90;;;;;;5047740;28;20482;-71
2023/12/25 05:47:29;;;;;;;6.50;0.70;;;10.30;99.90;;;;;;5047643;28;20478;-70
2023/12/25 05:49:57;;;;;;;6.73;1.00;;;10.30;99.90;;;;;;5047766;28;20458;-70
2023/12/25 05:52:25;;;;;;;6.00;0.70;;;10.30;99.90;;;;;;5047792;28;20513;-70
2023/12/25 05:54:54;;;;;;;6.27;0.63;;;10.40;99.90;;;;;;5047791;28;20455;-70
2023/12/25 05:57:22;;;;;;;5.90;0.67;;;10.40;99.90;;;;;;5047924;28;20890;-71
2023/12/25 05:59:50;;;;;;;6.10;0.70;;;10.40;99.90;;;;;;5047731;28;20435;-71
2023/12/25 06:02:18;;;;;;;6.50;0.70;;;10.40;99.90;;;;;;5047428;28;21111;-71
2023/12/25 06:04:46;;;;;;;6.13;0.70;;;10.40;99.90;;;;;;5046871;28;20477;-70
2023/12/25 06:07:14;;;;;;;6.10;0.83;;;10.40;99.90;;;;;;5046952;28;20475;-70
2023/12/25 06:09:42;;;;;;;6.07;0.60;;;10.40;99.90;;;;;;5047681;28;20447;-70
2023/12/25 06:12:11;;;;;;;8.23;0.70;;;10.40;99.90;;;;;;5047466;28;20813;-70
2023/12/25 06:14:39;;;;;;;5.67;0.60;;;10.40;99.90;;;;;;5047085;28;20574;-71
2023/12/25 06:17:09;;;;;;;7.13;1.10;;;10.30;99.90;;;;;;5047513;28;20539;-70
2023/12/25 06:19:40;;;;;;;6.30;0.90;;;10.40;99.90;;;;;;5046823;28;20534;-70
2023/12/25 06:22:08;;;;;;;5.80;0.60;;;10.30;99.90;;;;;;5047384;28;20478;-71
2023/12/25 06:24:36;;;;;;;6.30;0.60;;;10.30;99.90;;;;;;5046934;28;20909;-70
2023/12/25 06:27:05;;;;;;;6.00;0.70;;;10.30;99.90;;;;;;5047264;28;20542;-70
2023/12/25 06:29:34;;;;;;;5.80;0.60;;;10.30;99.90;;;;;;5047502;28;20455;-71
2023/12/25 06:32:02;;;;;;;8.47;0.67;;;10.30;99.90;;;;;;5047374;28;20483;-71
2023/12/25 06:34:30;;;;;;;6.50;0.90;;;10.30;99.90;;;;;;5047044;28;20929;-71
2023/12/25 06:36:58;;;;;;;6.00;0.67;;;10.20;99.90;;;;;;5047019;28;20455;-71
2023/12/25 06:39:26;;;;;;;8.00;0.80;;;10.20;99.90;;;;;;5047182;28;20469;-70
2023/12/25 06:41:54;;;;;;;6.30;0.70;;;10.20;99.90;;;;;;5047173;28;20771;-70
2023/12/25 06:44:22;;;;;;;6.90;0.90;;;10.20;99.90;;;;;;5046963;28;20579;-71
2023/12/25 06:46:52;;;;;;;6.37;0.77;;;10.20;99.90;;;;;;5047033;28;20513;-70
2023/12/25 06:49:20;;;;;;;6.67;0.70;;;10.10;99.90;;;;;;5047037;28;20444;-70
2023/12/25 06:51:48;;;;;;;5.77;0.70;;;10.20;99.90;;;;;;5047005;28;20513;-71
2023/12/25 06:54:16;;;;;;;6.00;0.60;;;10.20;99.90;;;;;;5046501;28;20449;-69
2023/12/25 06:56:44;;;;;;;6.60;0.87;;;10.20;99.90;;;;;;5047268;28;20483;-69
2023/12/25 06:59:12;;;;;;;6.80;0.90;;;10.20;99.90;;;;;;5047168;28;20455;-69
2023/12/25 07:01:40;;;;;;;6.13;0.90;;;10.20;99.90;;;;;;5046948;28;20920;-69
2023/12/25 07:04:11;;;;;;;5.90;0.70;;;10.20;99.90;;;;;;5046628;28;20481;-70
2023/12/25 07:06:39;;;;;;;6.27;0.70;;;10.20;99.90;;;;;;5047022;28;20447;-70
2023/12/25 07:09:09;;;;;;;6.10;0.90;;;10.30;99.90;;;;;;5046729;28;20494;-69
2023/12/25 07:11:37;;;;;;;6.60;0.80;;;10.30;99.90;;;;;;5046911;28;20811;-69
2023/12/25 07:14:08;;;;;;;6.13;0.90;;;10.20;99.90;;;;;;5046420;28;20456;-69
2023/12/25 07:16:35;;;;;;;7.20;0.70;;;10.30;99.90;;;;;;5046791;28;20542;-69
2023/12/25 07:19:05;;;;;;;5.70;0.60;;;10.30;99.90;;;;;;5046644;28;20558;-70
2023/12/25 07:21:34;;;;;;;5.70;0.50;;;10.30;99.90;;;;;;5046692;28;20490;-70
2023/12/25 07:24:04;;;;;;;6.47;1.00;;;10.30;99.90;;;;;;5046697;28;20609;-73
2023/12/25 07:26:35;;;;;;;5.83;0.70;;;10.30;99.90;;;;;;5046970;28;20438;-70
2023/12/25 07:29:03;;;;;;;7.10;0.90;;;10.30;99.90;;;;;;5046815;28;20520;-71
2023/12/25 07:31:31;;;;;;;7.57;0.70;;;10.30;99.90;;;;;;5042409;28;20445;-70
2023/12/25 07:33:59;;;;;;;7.30;0.80;;;10.30;99.90;;;;;;5051653;28;20474;-70
2023/12/25 07:36:27;;;;;;;6.30;0.83;;;10.20;99.90;;;;;;5042671;28;20535;-70
2023/12/25 07:38:56;;;;;;;5.77;0.67;;;10.20;99.90;;;;;;5050248;28;20549;-70
2023/12/25 07:41:24;;;;;;;6.67;0.87;;;10.20;99.90;;;;;;5053498;28;20447;-72
2023/12/25 07:43:52;;;;;;;5.80;0.80;;;10.20;99.90;;;;;;5049794;28;20449;-71
2023/12/25 07:46:20;;;;;;;7.67;0.73;;;10.20;99.90;;;;;;5050155;28;20451;-70
2023/12/25 07:48:48;;;;;;;6.70;0.80;;;10.20;99.90;;;;;;5050434;28;20523;-70
2023/12/25 07:51:16;;;;;;;6.07;0.63;;;10.30;99.90;;;;;;5050538;28;20502;-70
2023/12/25 07:53:44;;;;;;;7.13;0.80;;;10.40;99.90;;;;;;5050433;28;20448;-70
2023/12/25 07:56:14;;;;;;;5.83;0.70;;;10.40;99.90;;;;;;5049714;28;20438;-70
2023/12/25 07:58:42;;;;;;;6.43;1.07;;;10.30;99.90;;;;;;5050081;28;20465;-70
2023/12/25 08:01:12;;;;;;;6.20;0.60;;;10.40;99.90;;;;;;5050356;28;20448;-70
2023/12/25 08:03:40;;;;;;;6.50;0.73;;;10.40;99.90;;;;;;5050282;28;20440;-71
2023/12/25 08:06:11;;;;;;;5.77;0.67;;;10.50;99.90;;;;;;5049937;28;20798;-71
2023/12/25 08:08:39;;;;;;;5.87;0.90;;;10.50;99.90;;;;;;5050490;28;20460;-71
2023/12/25 08:11:07;;;;;;;6.63;0.77;;;10.60;99.90;;;;;;5050220;28;20443;-71
2023/12/25 08:13:36;;;;;;;6.27;0.67;;;10.70;99.90;;;;;;5049866;28;20490;-70
2023/12/25 08:16:04;;;;;;;6.00;0.70;;;10.80;99.90;;;;;;5049577;28;20437;-70
2023/12/25 08:18:32;;;;;;;5.70;0.70;;;10.80;99.90;;;;;;5051047;28;21126;-71
2023/12/25 08:21:00;;;;;;;5.80;0.67;;;10.90;99.90;;;;;;5052088;28;20443;-71
2023/12/25 08:23:28;;;;;;;6.00;0.80;;;10.90;99.90;;;;;;5042224;28;20451;-71
2023/12/25 08:25:56;;;;;;;6.23;0.87;;;10.90;99.90;;;;;;5049468;28;20562;-71
2023/12/25 08:28:24;;;;;;;5.80;0.60;;;10.80;99.90;;;;;;5049979;28;20501;-71
2023/12/25 08:30:53;;;;;;;6.20;0.77;;;10.80;99.90;;;;;;5049858;28;20908;-71
2023/12/25 08:33:21;;;;;;;6.63;0.80;;;10.90;99.90;;;;;;5049287;28;20460;-72
2023/12/25 08:35:50;;;;;;;6.23;0.80;;;10.90;99.90;;;;;;5049190;28;20531;-73
2023/12/25 08:38:18;;;;;;;6.10;1.00;;;11.10;99.90;;;;;;5049113;28;20540;-70
2023/12/25 08:40:46;;;;;;;6.50;0.90;;;11.20;99.90;;;;;;5049157;28;20453;-71
2023/12/25 08:43:14;;;;;;;6.10;1.07;;;11.10;99.90;;;;;;5048651;28;20501;-72
2023/12/25 08:45:42;;;;;;;5.87;0.60;;;11.10;99.90;;;;;;5049375;28;20558;-72
2023/12/25 08:48:11;;;;;;;6.60;1.10;;;11.10;99.90;;;;;;5049376;28;20473;-70
2023/12/25 08:50:39;;;;;;;6.43;0.87;;;11.10;99.90;;;;;;5049577;28;20794;-70
2023/12/25 08:53:08;;;;;;;5.97;0.93;;;11.20;99.90;;;;;;5049289;28;20459;-69
2023/12/25 08:55:36;;;;;;;6.20;1.00;;;11.20;99.90;;;;;;5048872;28;20468;-69
2023/12/25 08:58:04;;;;;;;6.70;0.70;;;11.30;99.90;;;;;;5048928;28;20465;-69
2023/12/25 09:00:32;;;;;;;5.90;0.80;;;11.40;99.90;;;;;;5049100;28;20544;-70
2023/12/25 09:03:00;;;;;;;6.33;0.70;;;11.50;99.90;;;;;;5049107;28;20531;-71
2023/12/25 09:05:29;;;;;;;6.73;0.90;;;11.50;99.90;;;;;;5048532;28;20480;-70
2023/12/25 09:07:58;;;;;;;5.90;0.83;;;11.50;99.90;;;;;;5048874;28;20502;-70
2023/12/25 09:10:25;;;;;;;6.53;1.00;;;11.40;99.90;;;;;;5048826;28;20452;-68
2023/12/25 09:12:53;;;;;;;6.60;1.00;;;11.40;99.90;;;;;;5048050;28;20521;-69
2023/12/25 09:15:21;;;;;;;5.77;0.70;;;11.40;99.90;;;;;;5047740;28;20447;-69
2023/12/25 09:17:50;;;;;;;5.80;0.80;;;11.40;99.90;;;;;;5047749;28;20472;-70
2023/12/25 09:20:18;;;;;;;6.20;0.67;;;11.40;99.90;;;;;;5047425;28;20458;-70
2023/12/25 09:22:47;;;;;;;7.17;0.93;;;11.40;99.90;;;;;;5047847;28;20476;-69
2023/12/25 09:25:16;;;;;;;5.80;0.70;;;11.40;99.90;;;;;;5047272;28;20568;-71
2023/12/25 09:27:43;;;;;;;7.33;1.30;;;11.40;99.90;;;;;;5047581;28;20471;-73
2023/12/25 09:30:13;;;;;;;6.20;0.80;;;11.30;99.90;;;;;;5047531;28;20448;-69
2023/12/25 09:32:41;;;;;;;6.23;0.67;;;11.30;99.90;;;;;;5047473;28;20833;-69
2023/12/25 09:35:12;;;;;;;5.97;0.70;;;11.40;99.90;;;;;;5047126;28;20480;-70
2023/12/25 09:37:40;;;;;;;5.77;0.60;;;11.50;99.90;;;;;;5044906;28;21098;-70
2023/12/25 09:40:11;;;;;;;5.80;0.50;;;11.60;99.90;;;;;;5045221;28;21041;-72
2023/12/25 09:42:39;;;;;;;6.30;1.10;;;11.80;99.90;;;;;;5047383;28;20559;-72
2023/12/25 09:45:10;;;;;;;5.77;0.70;;;12.00;99.90;;;;;;5046506;28;20483;-69
2023/12/25 09:47:39;;;;;;;6.17;0.87;;;12.10;99.90;;;;;;5047110;28;20473;-71
2023/12/25 09:50:08;;;;;;;6.07;0.63;;;12.20;99.90;;;;;;5047420;28;20531;-70
2023/12/25 09:52:36;;;;;;;6.53;0.70;;;12.30;99.90;;;;;;5047646;28;20550;-69
2023/12/25 09:55:05;;;;;;;6.07;0.63;;;12.20;99.90;;;;;;5045925;28;20453;-71
2023/12/25 09:57:36;;;;;;;6.70;1.00;;;12.00;99.90;;;;;;5047315;28;20480;-70
2023/12/25 10:00:07;;;;;;;6.27;0.90;;;11.90;99.90;;;;;;5047289;28;20451;-69
2023/12/25 10:02:38;;;;;;;7.50;0.90;;;12.00;99.90;;;;;;5047093;28;20452;-70
2023/12/25 10:05:07;;;;;;;5.90;0.70;;;12.00;99.90;;;;;;5047947;28;20441;-70
2023/12/25 10:07:36;;;;;;;6.10;0.70;;;12.00;99.90;;;;;;5046927;28;20476;-71
2023/12/25 10:10:05;;;;;;;5.90;0.60;;;12.00;99.90;;;;;;5046675;28;21063;-72
2023/12/25 10:12:34;;;;;;;5.77;0.50;;;12.00;99.90;;;;;;5046793;28;20442;-71
2023/12/25 10:15:04;;;;;;;6.00;0.60;;;12.10;99.90;;;;;;5046680;28;20546;-70
2023/12/25 10:17:32;;;;;;;6.50;0.83;;;12.20;99.90;;;;;;5046238;28;20935;-71
2023/12/25 10:20:00;;;;;;;6.63;1.13;;;12.20;99.90;;;;;;5045825;28;20452;-69
2023/12/25 10:22:30;;;;;;;6.20;0.80;;;12.30;99.90;;;;;;5049754;28;20967;-71
2023/12/25 10:25:07;;;;;;;6.00;0.57;;;12.30;99.90;;;;;;5046686;28;20482;-69
2023/12/25 10:27:37;;;;;;;5.77;0.50;;;12.30;99.90;;;;;;5039013;28;20568;-70
2023/12/25 10:30:15;;;;;;;5.60;0.50;;;12.40;99.90;;;;;;5047447;28;20532;-70
2023/12/25 10:32:44;;;;;;;6.50;0.80;;;12.30;99.90;;;;;;5043233;28;20537;-70
2023/12/25 10:35:14;;;;;;;6.20;0.60;;;12.30;99.90;;;;;;5045483;28;20538;-70
2023/12/25 10:37:45;;;;;;;5.80;0.50;;;12.40;99.90;;;;;;5046559;28;20591;-69
2023/12/25 10:40:20;;;;;;;7.50;0.50;;;12.40;99.90;;;;;;5047685;28;20516;-70
2023/12/25 10:42:51;;;;;;;5.57;0.50;;;12.60;99.90;;;;;;5046445;28;20448;-70
2023/12/25 10:45:22;;;;;;;5.97;0.87;;;12.80;99.90;;;;;;5046654;28;20449;-67
2023/12/25 10:47:53;;;;;;;5.80;0.60;;;12.70;99.90;;;;;;5047277;28;20474;-69
2023/12/25 10:50:24;;;;;;;5.80;0.50;;;12.70;99.90;;;;;;5045822;28;20451;-71
2023/12/25 10:52:54;;;;;;;6.00;0.80;;;12.60;99.90;;;;;;5046559;28;21125;-70
2023/12/25 10:55:27;;;;;;;5.67;0.50;;;12.40;99.90;;;;;;5044725;28;20451;-70
2023/12/25 10:57:57;;;;;;;6.37;0.70;;;12.20;99.90;;;;;;5060606;28;20454;-69
2023/12/25 11:00:28;;;;;;;5.50;0.40;;;12.30;99.90;;;;;;5046832;28;20858;-72
2023/12/25 11:03:00;;;;;;;6.43;0.63;;;12.50;99.90;;;;;;5045899;28;20537;-70
2023/12/25 11:05:28;;;;;;;6.10;0.50;;;12.50;99.90;;;;;;5042049;28;20452;-70
2023/12/25 11:07:57;;;;;;;5.80;0.80;;;12.70;99.90;;;;;;5049535;28;20474;-72
2023/12/25 11:10:27;;;;;;;6.20;1.00;;;12.70;99.90;;;;;;5049303;28;20441;-72
2023/12/25 11:12:58;;;;;;;5.90;0.90;;;12.80;99.90;;;;;;5049621;28;20509;-70
2023/12/25 11:15:26;;;;;;;5.60;0.40;;;12.70;99.90;;;;;;5048980;28;20541;-70
2023/12/25 11:17:55;;;;;;;5.60;0.50;;;12.70;99.90;;;;;;5045694;28;20471;-73
2023/12/25 11:20:24;;;;;;;5.90;0.67;;;12.80;99.90;;;;;;5047853;28;21101;-74
2023/12/25 11:22:55;;;;;;;5.87;0.67;;;12.50;99.90;;;;;;5045705;28;20450;-71
2023/12/25 11:25:23;;;;;;;5.70;0.53;;;12.30;99.90;;;;;;5045094;28;20555;-71
2023/12/25 11:27:52;;;;;;;5.73;0.47;;;12.10;99.90;;;;;;5047740;28;20558;-74
2023/12/25 11:30:24;;;;;;;5.90;0.60;;;12.20;99.90;;;;;;5043166;28;20589;-71
2023/12/25 11:32:54;;;;;;;5.70;0.50;;;12.20;99.90;;;;;;5045220;28;20457;-69
2023/12/25 11:35:28;;;;;;;5.90;0.60;;;12.20;99.90;;;;;;5042710;28;20896;-71
2023/12/25 11:38:30;;;;;;;6.10;0.53;;;12.20;99.90;;;;;;5042905;28;20563;-71
2023/12/25 11:41:03;;;;;;;5.70;0.70;;;12.30;99.90;;;;;;5045122;28;20514;-71
2023/12/25 11:43:32;;;;;;;6.10;0.47;;;12.30;99.90;;;;;;5044175;28;20451;-68
2023/12/25 11:46:05;;;;;;;6.20;0.60;;;12.40;99.90;;;;;;5042840;28;20463;-71
2023/12/25 11:48:33;;;;;;;6.40;0.63;;;12.40;99.90;;;;;;5040029;28;20470;-71
2023/12/25 11:51:18;;;;;;;5.73;0.50;;;12.40;99.90;;;;;;5038805;28;20437;-75
2023/12/25 11:53:47;;;;;;;5.90;0.70;;;12.30;99.90;;;;;;5045419;28;20444;-69
2023/12/25 11:56:17;;;;;;;5.67;0.43;;;12.10;99.90;;;;;;5037534;28;20442;-70
2023/12/25 11:58:46;;;;;;;5.80;0.50;;;12.20;99.90;;;;;;5043534;28;20464;-70
2023/12/25 12:01:19;;;;;;;5.77;0.57;;;12.10;99.90;;;;;;5047790;28;21162;-73
2023/12/25 12:03:47;;;;;;;6.10;0.40;;;12.10;99.90;;;;;;5042698;28;20505;-70
2023/12/25 12:06:16;;;;;;;5.53;0.40;;;12.20;99.90;;;;;;5042162;28;20485;-72
2023/12/25 12:08:45;;;;;;;6.63;0.60;;;12.20;99.90;;;;;;5043693;28;20527;-71
2023/12/25 12:11:14;;;;;;;7.80;0.73;;;12.30;99.90;;;;;;5043162;28;20462;-73
2023/12/25 12:13:43;;;;;;;5.80;0.60;;;12.40;99.90;;;;;;5043561;28;20454;-73
2023/12/25 12:16:11;;;;;;;5.90;0.60;;;12.40;99.90;;;;;;5043019;28;20894;-69
2023/12/25 12:18:41;;;;;;;6.20;0.70;;;12.40;99.90;;;;;;5047501;28;20562;-71
2023/12/25 12:21:09;;;;;;;5.83;0.43;;;12.50;99.90;;;;;;5048916;28;20447;-72
2023/12/25 12:23:37;;;;;;;6.40;0.50;;;12.50;99.90;;;;;;5048692;28;20461;-71
2023/12/25 12:26:14;;;;;;;6.87;0.80;;;12.50;99.90;;;;;;5048482;28;20457;-71
2023/12/25 12:28:42;;;;;;;6.20;0.70;;;12.40;99.90;;;;;;5042431;28;20465;-69
2023/12/25 12:31:10;;;;;;;5.57;0.50;;;12.30;99.90;;;;;;5048616;28;20450;-72
2023/12/25 12:33:38;;;;;;;5.80;0.50;;;12.20;99.90;;;;;;5048723;28;20500;-74
2023/12/25 12:36:08;;;;;;;6.00;0.57;;;12.10;99.90;;;;;;5047962;28;20450;-73
2023/12/25 12:38:40;;;;;;;5.83;0.70;;;11.90;99.90;;;;;;5044558;28;20465;-71
2023/12/25 12:41:08;;;;;;;6.13;0.50;;;12.00;99.90;;;;;;5046656;28;20442;-75
2023/12/25 12:43:36;;;;;;;5.80;0.60;;;12.00;99.90;;;;;;5040333;28;20550;-70
2023/12/25 12:46:14;;;;;;;5.60;0.57;;;12.10;99.90;;;;;;5047165;28;20443;-73
2023/12/25 12:48:43;;;;;;;5.77;0.60;;;12.00;99.90;;;;;;5041835;28;20870;-71
2023/12/25 12:51:13;;;;;;;7.03;0.90;;;12.20;99.90;;;;;;5047904;28;20445;-70
2023/12/25 12:53:41;;;;;;;6.00;0.70;;;12.20;99.90;;;;;;5048410;28;21029;-70
2023/12/25 12:56:11;;;;;;;5.80;0.60;;;12.10;99.90;;;;;;5047566;28;20538;-70